createdAt,value
2022-08-20T00:03:50.288Z,21.65
2022-08-20T00:08:56.840Z,21.63
2022-08-20T00:14:02.576Z,21.60
2022-08-20T00:19:08.348Z,21.57
2022-08-20T00:24:10.342Z,21.56
2022-08-20T00:29:12.784Z,21.59
2022-08-20T00:34:17.144Z,21.59
2022-08-20T00:39:22.554Z,21.55
2022-08-20T00:44:25.196Z,21.45
2022-08-20T00:49:31.170Z,21.39
2022-08-20T00:54:53.341Z,21.34
2022-08-20T00:59:56.940Z,21.26
2022-08-20T01:04:58.898Z,21.14
2022-08-20T01:10:04.933Z,21.10
2022-08-20T01:15:11.488Z,21.05
2022-08-20T01:20:20.283Z,21.03
2022-08-20T01:25:36.731Z,21.02
2022-08-20T01:30:40.178Z,21.03
2022-08-20T01:35:42.778Z,20.98
2022-08-20T01:41:00.900Z,20.83
2022-08-20T01:46:04.139Z,20.67
2022-08-20T01:51:09.745Z,20.51
2022-08-20T01:56:15.108Z,20.26
2022-08-20T02:01:21.858Z,20.04
2022-08-20T02:06:26.099Z,19.83
2022-08-20T02:11:29.857Z,19.68
2022-08-20T02:16:36.428Z,19.67
2022-08-20T02:21:43.665Z,19.76
2022-08-20T02:26:45.657Z,19.87
2022-08-20T02:32:24.809Z,20.01
2022-08-20T02:37:10.171Z,20.13
2022-08-20T02:42:12.310Z,20.23
2022-08-20T02:47:14.151Z,20.27
2022-08-20T02:52:16.121Z,20.27
2022-08-20T02:57:22.500Z,20.23
2022-08-20T03:02:24.860Z,19.91
2022-08-20T03:07:27.133Z,19.67
2022-08-20T03:12:29.104Z,19.51
2022-08-20T03:17:31.106Z,19.42
2022-08-20T03:22:33.452Z,19.49
2022-08-20T03:27:36.299Z,19.50
2022-08-20T03:32:39.837Z,19.59
2022-08-20T03:37:44.774Z,19.63
2022-08-20T03:42:52.354Z,19.71
2022-08-20T03:47:55.106Z,19.77
2022-08-20T03:52:58.125Z,19.68
2022-08-20T03:58:05.821Z,19.67
2022-08-20T04:03:08.588Z,19.69
2022-08-20T04:08:20.204Z,19.71
2022-08-20T04:13:22.763Z,19.79
2022-08-20T04:18:26.705Z,19.93
2022-08-20T04:23:30.267Z,20.05
2022-08-20T04:28:34.160Z,20.16
2022-08-20T04:33:36.117Z,20.07
2022-08-20T04:38:48.233Z,20.02
2022-08-20T04:43:54.690Z,20.20
2022-08-20T04:48:57.219Z,20.29
2022-08-20T04:54:00.296Z,20.25
2022-08-20T04:59:02.207Z,20.15
2022-08-20T05:04:04.159Z,20.15
2022-08-20T05:09:07.812Z,20.31
2022-08-20T05:14:15.090Z,20.39
2022-08-20T05:19:17.024Z,20.32
2022-08-20T05:24:21.031Z,20.60
2022-08-20T05:29:23.192Z,20.76
2022-08-20T05:34:25.900Z,20.63
2022-08-20T05:39:28.692Z,20.89
2022-08-20T05:44:31.164Z,21.10
2022-08-20T05:49:33.705Z,21.17
2022-08-20T05:54:37.931Z,21.36
2022-08-20T05:59:40.006Z,21.53
2022-08-20T06:04:43.708Z,21.78
2022-08-20T06:09:46.023Z,21.69
2022-08-20T06:14:48.133Z,21.61
2022-08-20T06:19:50.263Z,21.78
2022-08-20T06:24:52.452Z,21.91
2022-08-20T06:29:54.392Z,22.20
2022-08-20T06:35:00.032Z,22.24
2022-08-20T06:40:12.993Z,22.13
2022-08-20T06:45:18.922Z,22.31
2022-08-20T06:50:31.740Z,22.44
2022-08-20T06:55:39.378Z,22.34
2022-08-20T07:00:53.411Z,22.27
2022-08-20T07:05:58.320Z,22.24
2022-08-20T07:11:02.068Z,22.28
2022-08-20T07:16:08.406Z,22.28
2022-08-20T07:21:12.067Z,22.30
2022-08-20T07:26:14.140Z,22.42
2022-08-20T07:31:36.131Z,22.64
2022-08-20T07:36:38.441Z,22.80
2022-08-20T07:41:42.086Z,23.09
2022-08-20T07:46:47.996Z,23.13
2022-08-20T07:51:50.255Z,23.36
2022-08-20T07:56:53.793Z,23.71
2022-08-20T08:01:56.489Z,23.93
2022-08-20T08:07:00.315Z,23.89
2022-08-20T08:12:04.494Z,23.83
2022-08-20T08:17:07.415Z,24.09
2022-08-20T08:22:12.821Z,24.34
2022-08-20T08:27:18.842Z,24.64
2022-08-20T08:32:21.891Z,24.85
2022-08-20T08:37:24.896Z,25.08
2022-08-20T08:42:43.284Z,25.05
2022-08-20T08:47:47.005Z,25.38
2022-08-20T08:53:00.014Z,25.49
2022-08-20T08:58:16.492Z,25.72
2022-08-20T09:03:26.244Z,26.35
2022-08-20T09:08:44.738Z,26.04
2022-08-20T09:13:50.527Z,26.23
2022-08-20T09:18:53.246Z,26.70
2022-08-20T09:23:58.642Z,26.65
2022-08-20T09:29:01.012Z,26.95
2022-08-20T09:34:07.191Z,27.48
2022-08-20T09:39:18.578Z,27.66
2022-08-20T09:44:27.600Z,27.49
2022-08-20T09:49:31.241Z,27.03
2022-08-20T09:54:34.805Z,26.78
2022-08-20T09:59:37.490Z,27.22
2022-08-20T10:04:39.585Z,27.35
2022-08-20T10:09:43.549Z,27.17
2022-08-20T10:14:48.448Z,27.35
2022-08-20T10:19:52.506Z,27.81
2022-08-20T10:24:55.487Z,27.85
2022-08-20T10:29:57.514Z,27.58
2022-08-20T10:35:00.365Z,27.43
2022-08-20T10:40:06.401Z,26.99
2022-08-20T10:45:14.943Z,27.14
2022-08-20T10:50:19.972Z,27.21
2022-08-20T10:55:22.480Z,27.15
2022-08-20T11:00:26.060Z,27.08
2022-08-20T11:05:28.578Z,27.17
2022-08-20T11:10:43.579Z,27.34
2022-08-20T11:15:45.762Z,27.55
2022-08-20T11:20:50.525Z,27.64
2022-08-20T11:25:53.666Z,27.59
2022-08-20T11:31:06.504Z,27.63
2022-08-20T11:36:08.641Z,27.61
2022-08-20T11:41:13.322Z,27.71
2022-08-20T11:46:24.332Z,27.91
2022-08-20T11:51:31.042Z,28.03
2022-08-20T11:56:52.005Z,28.42
2022-08-20T12:02:02.261Z,28.82
2022-08-20T12:07:12.072Z,29.24
2022-08-20T12:12:20.238Z,29.26
2022-08-20T12:17:32.122Z,28.78
2022-08-20T12:22:34.429Z,28.71
2022-08-20T12:27:37.273Z,28.91
2022-08-20T12:32:42.196Z,29.36
2022-08-20T12:37:45.308Z,29.28
2022-08-20T12:42:50.401Z,28.89
2022-08-20T12:48:01.165Z,28.41
2022-08-20T12:53:10.387Z,28.31
2022-08-20T12:58:20.294Z,28.57
2022-08-20T13:03:22.393Z,28.68
2022-08-20T13:08:24.265Z,28.64
2022-08-20T13:13:26.265Z,28.72
2022-08-20T13:18:29.684Z,28.64
2022-08-20T13:23:31.660Z,28.32
2022-08-20T13:28:34.318Z,28.13
2022-08-20T13:33:36.270Z,28.26
2022-08-20T13:38:43.038Z,28.15
2022-08-20T13:43:45.114Z,28.41
2022-08-20T13:48:47.186Z,28.65
2022-08-20T13:53:50.294Z,28.94
2022-08-20T13:58:53.230Z,28.87
2022-08-20T14:03:55.217Z,28.68
2022-08-20T14:08:58.330Z,28.86
2022-08-20T14:14:00.949Z,28.87
2022-08-20T14:19:03.694Z,28.71
2022-08-20T14:24:06.224Z,28.33
2022-08-20T14:29:08.138Z,27.91
2022-08-20T14:34:10.134Z,27.60
2022-08-20T14:39:12.296Z,27.02
2022-08-20T14:44:14.305Z,26.88
2022-08-20T14:49:16.273Z,27.05
2022-08-20T14:54:18.423Z,27.08
2022-08-20T14:59:20.425Z,27.14
2022-08-20T15:04:22.590Z,27.13
2022-08-20T15:09:24.704Z,26.99
2022-08-20T15:14:27.030Z,26.75
2022-08-20T15:19:31.352Z,26.28
2022-08-20T15:24:33.528Z,25.78
2022-08-20T15:29:35.534Z,25.32
2022-08-20T15:34:39.199Z,24.90
2022-08-20T15:39:42.835Z,24.47
2022-08-20T15:44:45.953Z,23.89
2022-08-20T15:49:52.236Z,23.24
2022-08-20T15:55:02.266Z,22.68
2022-08-20T16:00:35.801Z,22.35
2022-08-20T16:05:46.703Z,22.11
2022-08-20T16:11:07.069Z,22.00
2022-08-20T16:16:47.013Z,21.97
2022-08-20T16:21:53.601Z,21.89
2022-08-20T16:27:40.161Z,21.90
2022-08-20T16:32:50.628Z,21.61
2022-08-20T16:38:22.119Z,21.32
2022-08-20T16:43:35.051Z,21.18
2022-08-20T16:48:39.034Z,20.98
2022-08-20T16:53:45.237Z,20.84
2022-08-20T16:58:51.052Z,20.71
2022-08-20T17:03:59.976Z,20.63
2022-08-20T17:09:19.476Z,20.57
2022-08-20T17:14:36.117Z,20.51
2022-08-20T17:19:40.587Z,20.47
2022-08-20T17:24:42.801Z,20.47
2022-08-20T17:30:08.700Z,20.45
2022-08-20T17:35:22.131Z,20.40
2022-08-20T17:40:29.985Z,20.33
2022-08-20T17:45:40.547Z,20.29
2022-08-20T17:50:44.247Z,20.22
2022-08-20T17:55:50.865Z,20.20
2022-08-20T18:00:52.976Z,20.18
2022-08-20T18:06:08.263Z,20.17
2022-08-20T18:11:12.367Z,20.15
2022-08-20T18:16:34.472Z,20.11
2022-08-20T18:21:55.333Z,20.04
2022-08-20T18:27:10.080Z,19.96
2022-08-20T18:32:38.687Z,19.87
2022-08-20T18:37:40.852Z,19.79
2022-08-20T18:42:46.003Z,19.76
2022-08-20T18:47:47.939Z,19.75
2022-08-20T18:52:53.093Z,19.75
2022-08-20T18:58:12.298Z,19.75
2022-08-20T19:03:23.945Z,19.75
2022-08-20T19:08:41.307Z,19.76
2022-08-20T19:13:59.818Z,19.76
2022-08-20T19:19:01.981Z,19.76
2022-08-20T19:24:08.322Z,19.78
2022-08-20T19:29:17.012Z,19.81
2022-08-20T19:34:23.975Z,19.83
2022-08-20T19:39:28.476Z,19.89
2022-08-20T19:44:33.943Z,19.93
2022-08-20T19:50:01.716Z,19.94
2022-08-20T19:55:05.237Z,20.00
2022-08-20T20:00:17.139Z,20.07
2022-08-20T20:05:19.766Z,20.12
2022-08-20T20:10:32.319Z,20.14
2022-08-20T20:15:40.258Z,20.14
2022-08-20T20:20:50.153Z,20.19
2022-08-20T20:26:06.139Z,20.19
2022-08-20T20:31:13.104Z,20.17
2022-08-20T20:36:17.961Z,20.16
2022-08-20T20:41:23.818Z,20.16
2022-08-20T20:46:30.871Z,20.13
2022-08-20T20:51:43.045Z,20.10
2022-08-20T20:56:57.111Z,20.08
2022-08-20T21:02:00.420Z,20.09
2022-08-20T21:07:12.001Z,20.08
2022-08-20T21:12:14.040Z,20.02
2022-08-20T21:17:24.776Z,19.96
2022-08-20T21:22:28.593Z,19.92
2022-08-20T21:27:31.277Z,19.86
2022-08-20T21:32:39.232Z,19.81
2022-08-20T21:37:52.440Z,19.76
2022-08-20T21:42:54.431Z,19.73
2022-08-20T21:47:57.081Z,19.71
2022-08-20T21:52:59.830Z,19.68
2022-08-20T21:58:04.237Z,19.62
2022-08-20T22:03:06.933Z,19.56
2022-08-20T22:08:10.531Z,19.54
2022-08-20T22:13:13.814Z,19.51
2022-08-20T22:18:20.438Z,19.52
2022-08-20T22:23:27.158Z,19.51
2022-08-20T22:28:35.344Z,19.46
2022-08-20T22:33:43.070Z,19.43
2022-08-20T22:38:54.659Z,19.44
2022-08-20T22:44:02.002Z,19.44
2022-08-20T22:49:10.824Z,19.43
2022-08-20T22:54:22.583Z,19.43
2022-08-20T22:59:26.403Z,19.39
2022-08-20T23:04:37.897Z,19.37
2022-08-20T23:09:52.473Z,19.37
2022-08-20T23:15:00.130Z,19.35
2022-08-20T23:20:14.060Z,19.31
2022-08-20T23:25:16.158Z,19.28
2022-08-20T23:30:19.426Z,19.23
2022-08-20T23:35:22.262Z,19.20
2022-08-20T23:40:28.668Z,19.18
2022-08-20T23:45:31.135Z,19.15
2022-08-20T23:50:33.336Z,19.14
2022-08-20T23:55:35.510Z,19.10
